sensor_id;sensor_type;location;lat;lon;timestamp;temperature;humidity
16076;DHT22;8142;48.242;11.644;2023-05-07T00:00:00;13.70;99.90
16076;DHT22;8142;48.242;11.644;2023-05-07T00:02:26;13.60;99.90
16076;DHT22;8142;48.242;11.644;2023-05-07T00:04:52;13.50;99.90
16076;DHT22;8142;48.242;11.644;2023-05-07T00:07:18;13.50;99.90
16076;DHT22;8142;48.242;11.644;2023-05-07T00:09:44;13.40;99.90
16076;DHT22;8142;48.242;11.644;2023-05-07T00:12:10;13.30;99.90
16076;DHT22;8142;48.242;11.644;2023-05-07T00:14:36;13.30;99.90
16076;DHT22;8142;48.242;11.644;2023-05-07T00:17:01;13.30;99.90
16076;DHT22;8142;48.242;11.644;2023-05-07T00:19:27;13.40;99.90
16076;DHT22;8142;48.242;11.644;2023-05-07T00:21:53;13.50;99.90
16076;DHT22;8142;48.242;11.644;2023-05-07T00:24:20;13.50;99.90
16076;DHT22;8142;48.242;11.644;2023-05-07T00:26:46;13.50;99.90
16076;DHT22;8142;48.242;11.644;2023-05-07T00:29:11;13.50;99.90
16076;DHT22;8142;48.242;11.644;2023-05-07T00:31:37;13.50;99.90
16076;DHT22;8142;48.242;11.644;2023-05-07T00:34:03;13.40;99.90
16076;DHT22;8142;48.242;11.644;2023-05-07T00:36:29;13.30;99.90
16076;DHT22;8142;48.242;11.644;2023-05-07T00:38:56;13.30;99.90
16076;DHT22;8142;48.242;11.644;2023-05-07T00:41:22;13.20;99.90
16076;DHT22;8142;48.242;11.644;2023-05-07T00:43:48;13.10;99.90
16076;DHT22;8142;48.242;11.644;2023-05-07T00:46:18;13.00;99.90
16076;DHT22;8142;48.242;11.644;2023-05-07T00:48:45;13.10;99.90
16076;DHT22;8142;48.242;11.644;2023-05-07T00:51:11;13.20;99.90
16076;DHT22;8142;48.242;11.644;2023-05-07T00:53:38;13.20;99.90
16076;DHT22;8142;48.242;11.644;2023-05-07T00:56:04;13.20;99.90
16076;DHT22;8142;48.242;11.644;2023-05-07T00:58:33;13.10;99.90
16076;DHT22;8142;48.242;11.644;2023-05-07T01:00:59;13.10;99.90
16076;DHT22;8142;48.242;11.644;2023-05-07T01:03:25;13.00;99.90
16076;DHT22;8142;48.242;11.644;2023-05-07T01:05:52;12.90;99.90
16076;DHT22;8142;48.242;11.644;2023-05-07T01:08:20;12.90;99.90
16076;DHT22;8142;48.242;11.644;2023-05-07T01:10:47;12.90;99.90
16076;DHT22;8142;48.242;11.644;2023-05-07T01:13:14;12.80;99.90
16076;DHT22;8142;48.242;11.644;2023-05-07T01:15:40;12.80;99.90
16076;DHT22;8142;48.242;11.644;2023-05-07T01:18:07;12.90;99.90
16076;DHT22;8142;48.242;11.644;2023-05-07T01:20:33;13.00;99.90
16076;DHT22;8142;48.242;11.644;2023-05-07T01:23:00;13.00;99.90
16076;DHT22;8142;48.242;11.644;2023-05-07T01:25:27;13.10;99.90
16076;DHT22;8142;48.242;11.644;2023-05-07T01:27:53;13.10;99.90
16076;DHT22;8142;48.242;11.644;2023-05-07T01:30:20;13.10;99.90
16076;DHT22;8142;48.242;11.644;2023-05-07T01:33:13;13.10;99.90
16076;DHT22;8142;48.242;11.644;2023-05-07T01:35:43;13.10;99.90
16076;DHT22;8142;48.242;11.644;2023-05-07T01:38:11;13.10;99.90
16076;DHT22;8142;48.242;11.644;2023-05-07T01:40:37;13.00;99.90
16076;DHT22;8142;48.242;11.644;2023-05-07T01:43:04;12.90;99.90
16076;DHT22;8142;48.242;11.644;2023-05-07T01:45:31;12.90;99.90
16076;DHT22;8142;48.242;11.644;2023-05-07T01:47:58;12.90;99.90
16076;DHT22;8142;48.242;11.644;2023-05-07T01:50:25;13.00;99.90
16076;DHT22;8142;48.242;11.644;2023-05-07T01:52:51;13.10;99.90
16076;DHT22;8142;48.242;11.644;2023-05-07T01:55:17;13.20;99.90
16076;DHT22;8142;48.242;11.644;2023-05-07T01:57:43;13.10;99.90
16076;DHT22;8142;48.242;11.644;2023-05-07T02:00:12;13.10;99.90
16076;DHT22;8142;48.242;11.644;2023-05-07T02:02:38;13.10;99.90
16076;DHT22;8142;48.242;11.644;2023-05-07T02:05:04;13.00;99.90
16076;DHT22;8142;48.242;11.644;2023-05-07T02:07:30;13.00;99.90
16076;DHT22;8142;48.242;11.644;2023-05-07T02:09:56;12.90;99.90
16076;DHT22;8142;48.242;11.644;2023-05-07T02:12:22;12.80;99.90
16076;DHT22;8142;48.242;11.644;2023-05-07T02:14:49;12.80;99.90
16076;DHT22;8142;48.242;11.644;2023-05-07T02:17:15;12.80;99.90
16076;DHT22;8142;48.242;11.644;2023-05-07T02:19:40;12.90;99.90
16076;DHT22;8142;48.242;11.644;2023-05-07T02:22:07;13.00;99.90
16076;DHT22;8142;48.242;11.644;2023-05-07T02:24:33;13.00;99.90
16076;DHT22;8142;48.242;11.644;2023-05-07T02:26:59;13.00;99.90
16076;DHT22;8142;48.242;11.644;2023-05-07T02:29:25;12.90;99.90
16076;DHT22;8142;48.242;11.644;2023-05-07T02:31:51;12.90;99.90
16076;DHT22;8142;48.242;11.644;2023-05-07T02:34:19;12.90;99.90
16076;DHT22;8142;48.242;11.644;2023-05-07T02:36:45;12.80;99.90
16076;DHT22;8142;48.242;11.644;2023-05-07T02:39:12;12.80;99.90
16076;DHT22;8142;48.242;11.644;2023-05-07T02:41:38;12.80;99.90
16076;DHT22;8142;48.242;11.644;2023-05-07T02:44:04;12.70;99.90
16076;DHT22;8142;48.242;11.644;2023-05-07T02:46:30;12.70;99.90
16076;DHT22;8142;48.242;11.644;2023-05-07T02:48:56;12.90;99.90
16076;DHT22;8142;48.242;11.644;2023-05-07T02:51:22;12.90;99.90
16076;DHT22;8142;48.242;11.644;2023-05-07T02:53:48;13.00;99.90
16076;DHT22;8142;48.242;11.644;2023-05-07T02:56:14;13.00;99.90
16076;DHT22;8142;48.242;11.644;2023-05-07T02:58:40;13.00;99.90
16076;DHT22;8142;48.242;11.644;2023-05-07T03:01:07;13.00;99.90
16076;DHT22;8142;48.242;11.644;2023-05-07T03:03:34;13.00;99.90
16076;DHT22;8142;48.242;11.644;2023-05-07T03:06:00;13.00;99.90
16076;DHT22;8142;48.242;11.644;2023-05-07T03:08:26;12.90;99.90
16076;DHT22;8142;48.242;11.644;2023-05-07T03:10:52;12.90;99.90
16076;DHT22;8142;48.242;11.644;2023-05-07T03:13:18;12.90;99.90
16076;DHT22;8142;48.242;11.644;2023-05-07T03:15:44;12.70;99.90
16076;DHT22;8142;48.242;11.644;2023-05-07T03:18:09;12.80;99.90
16076;DHT22;8142;48.242;11.644;2023-05-07T03:20:36;12.90;99.90
16076;DHT22;8142;48.242;11.644;2023-05-07T03:23:02;12.90;99.90
16076;DHT22;8142;48.242;11.644;2023-05-07T03:25:28;12.80;99.90
16076;DHT22;8142;48.242;11.644;2023-05-07T03:27:56;12.80;99.90
16076;DHT22;8142;48.242;11.644;2023-05-07T03:30:22;12.80;99.90
16076;DHT22;8142;48.242;11.644;2023-05-07T03:32:48;12.70;99.90
16076;DHT22;8142;48.242;11.644;2023-05-07T03:35:14;12.60;99.90
16076;DHT22;8142;48.242;11.644;2023-05-07T03:37:40;12.60;99.90
16076;DHT22;8142;48.242;11.644;2023-05-07T03:40:09;12.60;99.90
16076;DHT22;8142;48.242;11.644;2023-05-07T03:42:35;12.50;99.90
16076;DHT22;8142;48.242;11.644;2023-05-07T03:45:02;12.50;99.90
16076;DHT22;8142;48.242;11.644;2023-05-07T03:47:28;12.50;99.90
16076;DHT22;8142;48.242;11.644;2023-05-07T03:49:54;12.60;99.90
16076;DHT22;8142;48.242;11.644;2023-05-07T03:52:20;12.70;99.90
16076;DHT22;8142;48.242;11.644;2023-05-07T03:54:50;12.70;99.90
16076;DHT22;8142;48.242;11.644;2023-05-07T03:57:16;12.70;99.90
16076;DHT22;8142;48.242;11.644;2023-05-07T03:59:42;12.70;99.90
16076;DHT22;8142;48.242;11.644;2023-05-07T04:02:07;12.70;99.90
16076;DHT22;8142;48.242;11.644;2023-05-07T04:04:33;12.60;99.90
16076;DHT22;8142;48.242;11.644;2023-05-07T04:06:59;12.50;99.90
16076;DHT22;8142;48.242;11.644;2023-05-07T04:09:26;12.30;99.90
16076;DHT22;8142;48.242;11.644;2023-05-07T04:11:51;12.10;99.90
16076;DHT22;8142;48.242;11.644;2023-05-07T04:14:17;11.80;99.90
16076;DHT22;8142;48.242;11.644;2023-05-07T04:16:43;11.70;99.90
16076;DHT22;8142;48.242;11.644;2023-05-07T04:19:09;11.40;99.90
16076;DHT22;8142;48.242;11.644;2023-05-07T04:21:35;11.30;99.90
16076;DHT22;8142;48.242;11.644;2023-05-07T04:24:02;11.10;99.90
16076;DHT22;8142;48.242;11.644;2023-05-07T04:26:28;11.00;99.90
16076;DHT22;8142;48.242;11.644;2023-05-07T04:28:54;10.80;99.90
16076;DHT22;8142;48.242;11.644;2023-05-07T04:31:21;10.80;99.90
16076;DHT22;8142;48.242;11.644;2023-05-07T04:33:46;10.80;99.90
16076;DHT22;8142;48.242;11.644;2023-05-07T04:36:12;10.80;99.90
16076;DHT22;8142;48.242;11.644;2023-05-07T04:38:38;10.70;99.90
16076;DHT22;8142;48.242;11.644;2023-05-07T04:41:05;10.60;99.90
16076;DHT22;8142;48.242;11.644;2023-05-07T04:43:31;10.60;99.90
16076;DHT22;8142;48.242;11.644;2023-05-07T04:45:57;10.60;99.90
16076;DHT22;8142;48.242;11.644;2023-05-07T04:48:23;10.70;99.90
16076;DHT22;8142;48.242;11.644;2023-05-07T04:50:50;10.70;99.90
16076;DHT22;8142;48.242;11.644;2023-05-07T04:53:17;10.70;99.90
16076;DHT22;8142;48.242;11.644;2023-05-07T04:55:43;10.70;99.90
16076;DHT22;8142;48.242;11.644;2023-05-07T04:58:11;10.80;99.90
16076;DHT22;8142;48.242;11.644;2023-05-07T05:00:37;10.90;99.90
16076;DHT22;8142;48.242;11.644;2023-05-07T05:03:04;11.00;99.90
16076;DHT22;8142;48.242;11.644;2023-05-07T05:05:30;11.10;99.90
16076;DHT22;8142;48.242;11.644;2023-05-07T05:07:56;11.20;99.90
16076;DHT22;8142;48.242;11.644;2023-05-07T05:10:22;11.30;99.90
16076;DHT22;8142;48.242;11.644;2023-05-07T05:12:48;11.40;99.90
16076;DHT22;8142;48.242;11.644;2023-05-07T05:15:14;11.50;99.90
16076;DHT22;8142;48.242;11.644;2023-05-07T05:17:40;11.60;99.90
16076;DHT22;8142;48.242;11.644;2023-05-07T05:20:06;11.70;99.90
16076;DHT22;8142;48.242;11.644;2023-05-07T05:22:32;11.80;99.90
16076;DHT22;8142;48.242;11.644;2023-05-07T05:24:58;11.90;99.90
16076;DHT22;8142;48.242;11.644;2023-05-07T05:27:24;12.10;99.90
16076;DHT22;8142;48.242;11.644;2023-05-07T05:29:50;12.20;99.90
16076;DHT22;8142;48.242;11.644;2023-05-07T05:32:16;12.40;99.90
16076;DHT22;8142;48.242;11.644;2023-05-07T05:34:41;12.50;99.90
16076;DHT22;8142;48.242;11.644;2023-05-07T05:37:07;12.80;99.90
16076;DHT22;8142;48.242;11.644;2023-05-07T05:39:33;13.10;99.90
16076;DHT22;8142;48.242;11.644;2023-05-07T05:41:59;13.40;99.90
16076;DHT22;8142;48.242;11.644;2023-05-07T05:44:25;13.70;99.90
16076;DHT22;8142;48.242;11.644;2023-05-07T05:46:51;14.00;99.90
16076;DHT22;8142;48.242;11.644;2023-05-07T05:49:17;14.20;99.90
16076;DHT22;8142;48.242;11.644;2023-05-07T05:51:43;14.60;99.90
16076;DHT22;8142;48.242;11.644;2023-05-07T05:54:09;14.80;99.90
16076;DHT22;8142;48.242;11.644;2023-05-07T05:56:36;15.10;99.90
16076;DHT22;8142;48.242;11.644;2023-05-07T05:59:02;15.30;99.90
16076;DHT22;8142;48.242;11.644;2023-05-07T06:01:28;15.50;99.90
16076;DHT22;8142;48.242;11.644;2023-05-07T06:03:54;15.70;99.90
16076;DHT22;8142;48.242;11.644;2023-05-07T06:06:20;15.90;99.90
16076;DHT22;8142;48.242;11.644;2023-05-07T06:08:46;16.00;99.90
16076;DHT22;8142;48.242;11.644;2023-05-07T06:11:12;16.20;99.90
16076;DHT22;8142;48.242;11.644;2023-05-07T06:13:37;16.40;99.90
16076;DHT22;8142;48.242;11.644;2023-05-07T06:16:03;16.50;99.90
16076;DHT22;8142;48.242;11.644;2023-05-07T06:18:29;16.70;99.90
16076;DHT22;8142;48.242;11.644;2023-05-07T06:20:55;16.80;99.90
16076;DHT22;8142;48.242;11.644;2023-05-07T06:23:21;16.90;99.90
16076;DHT22;8142;48.242;11.644;2023-05-07T06:25:50;17.10;99.90
16076;DHT22;8142;48.242;11.644;2023-05-07T06:28:17;17.20;99.90
16076;DHT22;8142;48.242;11.644;2023-05-07T06:30:43;17.40;99.90
16076;DHT22;8142;48.242;11.644;2023-05-07T06:33:09;17.50;99.90
16076;DHT22;8142;48.242;11.644;2023-05-07T06:35:34;17.50;99.90
16076;DHT22;8142;48.242;11.644;2023-05-07T06:38:00;17.60;99.90
16076;DHT22;8142;48.242;11.644;2023-05-07T06:40:27;17.60;99.90
16076;DHT22;8142;48.242;11.644;2023-05-07T06:42:53;17.50;99.90
16076;DHT22;8142;48.242;11.644;2023-05-07T06:45:19;17.40;99.90
16076;DHT22;8142;48.242;11.644;2023-05-07T06:47:45;17.60;99.90
16076;DHT22;8142;48.242;11.644;2023-05-07T06:50:11;17.60;99.90
16076;DHT22;8142;48.242;11.644;2023-05-07T06:52:37;17.60;99.90
16076;DHT22;8142;48.242;11.644;2023-05-07T06:55:03;17.60;99.90
16076;DHT22;8142;48.242;11.644;2023-05-07T06:57:29;17.70;99.90
16076;DHT22;8142;48.242;11.644;2023-05-07T06:59:55;17.80;99.90
16076;DHT22;8142;48.242;11.644;2023-05-07T07:02:21;18.00;99.90
16076;DHT22;8142;48.242;11.644;2023-05-07T07:04:47;18.20;99.90
16076;DHT22;8142;48.242;11.644;2023-05-07T07:07:13;18.30;99.90
16076;DHT22;8142;48.242;11.644;2023-05-07T07:09:39;18.50;99.90
16076;DHT22;8142;48.242;11.644;2023-05-07T07:12:05;18.60;99.90
16076;DHT22;8142;48.242;11.644;2023-05-07T07:14:31;18.70;99.90
16076;DHT22;8142;48.242;11.644;2023-05-07T07:16:57;18.80;99.90
16076;DHT22;8142;48.242;11.644;2023-05-07T07:19:23;18.90;99.90
16076;DHT22;8142;48.242;11.644;2023-05-07T07:21:48;19.00;99.90
16076;DHT22;8142;48.242;11.644;2023-05-07T07:24:15;19.20;99.90
16076;DHT22;8142;48.242;11.644;2023-05-07T07:26:46;19.30;99.90
16076;DHT22;8142;48.242;11.644;2023-05-07T07:29:13;19.40;99.90
16076;DHT22;8142;48.242;11.644;2023-05-07T07:31:39;19.50;99.90
16076;DHT22;8142;48.242;11.644;2023-05-07T07:34:04;19.50;99.90
16076;DHT22;8142;48.242;11.644;2023-05-07T07:36:30;19.50;99.90
16076;DHT22;8142;48.242;11.644;2023-05-07T07:38:56;19.60;99.90
16076;DHT22;8142;48.242;11.644;2023-05-07T07:41:22;19.60;99.90
16076;DHT22;8142;48.242;11.644;2023-05-07T07:43:48;19.60;99.90
16076;DHT22;8142;48.242;11.644;2023-05-07T07:46:13;19.70;99.90
16076;DHT22;8142;48.242;11.644;2023-05-07T07:48:39;19.70;99.90
16076;DHT22;8142;48.242;11.644;2023-05-07T07:51:05;19.80;99.90
16076;DHT22;8142;48.242;11.644;2023-05-07T07:53:31;19.80;99.90
16076;DHT22;8142;48.242;11.644;2023-05-07T07:55:57;19.90;99.90
16076;DHT22;8142;48.242;11.644;2023-05-07T07:58:23;20.00;99.90
16076;DHT22;8142;48.242;11.644;2023-05-07T08:00:50;20.00;99.90
16076;DHT22;8142;48.242;11.644;2023-05-07T08:03:16;20.20;99.90
16076;DHT22;8142;48.242;11.644;2023-05-07T08:05:42;20.20;99.90
16076;DHT22;8142;48.242;11.644;2023-05-07T08:08:09;20.30;99.90
16076;DHT22;8142;48.242;11.644;2023-05-07T08:10:35;20.40;99.90
16076;DHT22;8142;48.242;11.644;2023-05-07T08:13:03;20.50;99.90
16076;DHT22;8142;48.242;11.644;2023-05-07T08:15:30;20.50;99.90
16076;DHT22;8142;48.242;11.644;2023-05-07T08:17:56;20.60;99.90
16076;DHT22;8142;48.242;11.644;2023-05-07T08:20:23;20.60;99.90
16076;DHT22;8142;48.242;11.644;2023-05-07T08:22:49;20.70;99.90
16076;DHT22;8142;48.242;11.644;2023-05-07T08:25:15;20.70;99.90
16076;DHT22;8142;48.242;11.644;2023-05-07T08:27:41;20.70;99.90
16076;DHT22;8142;48.242;11.644;2023-05-07T08:30:07;20.70;99.90
16076;DHT22;8142;48.242;11.644;2023-05-07T08:32:33;20.70;99.90
16076;DHT22;8142;48.242;11.644;2023-05-07T08:35:00;20.80;99.90
16076;DHT22;8142;48.242;11.644;2023-05-07T08:37:26;20.90;99.90
16076;DHT22;8142;48.242;11.644;2023-05-07T08:39:52;21.00;99.90
16076;DHT22;8142;48.242;11.644;2023-05-07T08:42:18;21.10;99.90
16076;DHT22;8142;48.242;11.644;2023-05-07T08:44:45;21.10;99.90
16076;DHT22;8142;48.242;11.644;2023-05-07T08:47:14;21.10;99.90
16076;DHT22;8142;48.242;11.644;2023-05-07T08:49:40;21.10;99.90
16076;DHT22;8142;48.242;11.644;2023-05-07T08:52:06;21.00;99.90
16076;DHT22;8142;48.242;11.644;2023-05-07T08:54:32;20.90;99.90
16076;DHT22;8142;48.242;11.644;2023-05-07T08:56:59;20.80;99.90
16076;DHT22;8142;48.242;11.644;2023-05-07T08:59:25;20.70;99.90
16076;DHT22;8142;48.242;11.644;2023-05-07T09:01:51;20.60;99.90
16076;DHT22;8142;48.242;11.644;2023-05-07T09:04:17;20.40;99.90
16076;DHT22;8142;48.242;11.644;2023-05-07T09:06:43;20.30;99.90
16076;DHT22;8142;48.242;11.644;2023-05-07T09:09:09;20.20;99.90
16076;DHT22;8142;48.242;11.644;2023-05-07T09:11:35;20.10;99.90
16076;DHT22;8142;48.242;11.644;2023-05-07T09:14:01;20.10;99.90
16076;DHT22;8142;48.242;11.644;2023-05-07T09:16:30;20.00;99.90
16076;DHT22;8142;48.242;11.644;2023-05-07T09:18:58;20.00;99.90
16076;DHT22;8142;48.242;11.644;2023-05-07T09:21:24;19.80;99.90
16076;DHT22;8142;48.242;11.644;2023-05-07T09:23:54;19.70;99.90
16076;DHT22;8142;48.242;11.644;2023-05-07T09:26:24;19.60;99.90
16076;DHT22;8142;48.242;11.644;2023-05-07T09:28:50;19.50;99.90
16076;DHT22;8142;48.242;11.644;2023-05-07T09:31:16;19.40;99.90
16076;DHT22;8142;48.242;11.644;2023-05-07T09:33:42;19.40;99.90
16076;DHT22;8142;48.242;11.644;2023-05-07T09:36:09;19.40;99.90
16076;DHT22;8142;48.242;11.644;2023-05-07T09:38:36;19.40;99.90
16076;DHT22;8142;48.242;11.644;2023-05-07T09:41:03;19.50;99.90
16076;DHT22;8142;48.242;11.644;2023-05-07T09:43:34;19.40;99.90
16076;DHT22;8142;48.242;11.644;2023-05-07T09:46:06;19.40;99.90
16076;DHT22;8142;48.242;11.644;2023-05-07T09:48:36;19.40;99.90
16076;DHT22;8142;48.242;11.644;2023-05-07T09:51:03;19.40;99.90
16076;DHT22;8142;48.242;11.644;2023-05-07T09:53:31;19.50;99.90
16076;DHT22;8142;48.242;11.644;2023-05-07T09:55:59;19.50;99.90
16076;DHT22;8142;48.242;11.644;2023-05-07T09:58:26;19.50;99.90
16076;DHT22;8142;48.242;11.644;2023-05-07T10:00:52;19.60;99.90
16076;DHT22;8142;48.242;11.644;2023-05-07T10:03:19;19.50;99.90
16076;DHT22;8142;48.242;11.644;2023-05-07T10:05:46;19.60;99.90
16076;DHT22;8142;48.242;11.644;2023-05-07T10:08:13;19.60;99.90
16076;DHT22;8142;48.242;11.644;2023-05-07T10:10:42;19.70;99.90
16076;DHT22;8142;48.242;11.644;2023-05-07T10:13:10;19.70;99.90
16076;DHT22;8142;48.242;11.644;2023-05-07T10:15:36;19.70;99.90
16076;DHT22;8142;48.242;11.644;2023-05-07T10:18:04;19.70;99.90
16076;DHT22;8142;48.242;11.644;2023-05-07T10:20:33;19.80;99.90
16076;DHT22;8142;48.242;11.644;2023-05-07T10:23:01;19.80;99.90
16076;DHT22;8142;48.242;11.644;2023-05-07T10:25:30;19.70;99.90
16076;DHT22;8142;48.242;11.644;2023-05-07T10:27:59;19.70;99.90
16076;DHT22;8142;48.242;11.644;2023-05-07T10:33:11;19.80;99.90
16076;DHT22;8142;48.242;11.644;2023-05-07T10:35:41;19.70;99.90
16076;DHT22;8142;48.242;11.644;2023-05-07T10:38:08;19.80;99.90
16076;DHT22;8142;48.242;11.644;2023-05-07T10:40:35;19.80;99.90
16076;DHT22;8142;48.242;11.644;2023-05-07T10:43:05;19.80;99.90
16076;DHT22;8142;48.242;11.644;2023-05-07T10:45:31;19.80;99.90
16076;DHT22;8142;48.242;11.644;2023-05-07T10:48:14;19.80;99.90
16076;DHT22;8142;48.242;11.644;2023-05-07T10:50:42;19.80;99.90
16076;DHT22;8142;48.242;11.644;2023-05-07T10:58:44;19.80;99.90
16076;DHT22;8142;48.242;11.644;2023-05-07T11:01:10;19.80;99.90
16076;DHT22;8142;48.242;11.644;2023-05-07T11:04:14;19.80;99.90
16076;DHT22;8142;48.242;11.644;2023-05-07T11:06:40;19.80;99.90
16076;DHT22;8142;48.242;11.644;2023-05-07T11:09:06;19.80;99.90
16076;DHT22;8142;48.242;11.644;2023-05-07T11:11:49;19.80;99.90
16076;DHT22;8142;48.242;11.644;2023-05-07T11:14:46;19.90;99.90
16076;DHT22;8142;48.242;11.644;2023-05-07T11:17:12;19.90;99.90
16076;DHT22;8142;48.242;11.644;2023-05-07T11:19:54;19.90;99.90
16076;DHT22;8142;48.242;11.644;2023-05-07T11:25:02;20.00;99.90
16076;DHT22;8142;48.242;11.644;2023-05-07T11:27:29;20.00;99.90
16076;DHT22;8142;48.242;11.644;2023-05-07T11:29:55;20.00;99.90
16076;DHT22;8142;48.242;11.644;2023-05-07T11:32:24;19.90;99.90
16076;DHT22;8142;48.242;11.644;2023-05-07T11:34:52;19.90;99.90
16076;DHT22;8142;48.242;11.644;2023-05-07T11:37:21;19.90;99.90
16076;DHT22;8142;48.242;11.644;2023-05-07T11:39:47;19.90;99.90
16076;DHT22;8142;48.242;11.644;2023-05-07T11:42:28;19.90;99.90
16076;DHT22;8142;48.242;11.644;2023-05-07T11:44:55;19.90;99.90
16076;DHT22;8142;48.242;11.644;2023-05-07T11:47:21;19.90;99.90
16076;DHT22;8142;48.242;11.644;2023-05-07T11:49:52;19.90;99.90
16076;DHT22;8142;48.242;11.644;2023-05-07T11:52:20;19.80;99.90
16076;DHT22;8142;48.242;11.644;2023-05-07T11:54:54;19.90;99.90
16076;DHT22;8142;48.242;11.644;2023-05-07T11:57:24;19.90;99.90
16076;DHT22;8142;48.242;11.644;2023-05-07T11:59:57;19.90;99.90
16076;DHT22;8142;48.242;11.644;2023-05-07T12:02:24;19.90;99.90
16076;DHT22;8142;48.242;11.644;2023-05-07T12:04:53;19.90;99.90
16076;DHT22;8142;48.242;11.644;2023-05-07T12:07:20;20.00;99.90
16076;DHT22;8142;48.242;11.644;2023-05-07T12:09:46;20.00;99.90
16076;DHT22;8142;48.242;11.644;2023-05-07T12:12:13;20.10;99.90
16076;DHT22;8142;48.242;11.644;2023-05-07T12:14:44;20.10;99.90
16076;DHT22;8142;48.242;11.644;2023-05-07T12:17:11;20.10;99.90
16076;DHT22;8142;48.242;11.644;2023-05-07T12:19:39;20.20;99.90
16076;DHT22;8142;48.242;11.644;2023-05-07T12:22:07;20.20;99.90
16076;DHT22;8142;48.242;11.644;2023-05-07T12:24:46;20.20;99.90
16076;DHT22;8142;48.242;11.644;2023-05-07T12:27:14;20.30;99.90
16076;DHT22;8142;48.242;11.644;2023-05-07T12:29:43;20.30;99.90
16076;DHT22;8142;48.242;11.644;2023-05-07T12:32:16;20.40;99.90
16076;DHT22;8142;48.242;11.644;2023-05-07T12:34:42;20.40;99.90
16076;DHT22;8142;48.242;11.644;2023-05-07T12:37:09;20.40;99.90
16076;DHT22;8142;48.242;11.644;2023-05-07T12:39:35;20.50;99.90
16076;DHT22;8142;48.242;11.644;2023-05-07T12:42:01;20.50;99.90
16076;DHT22;8142;48.242;11.644;2023-05-07T12:44:34;20.50;99.90
16076;DHT22;8142;48.242;11.644;2023-05-07T12:47:04;20.60;99.90
16076;DHT22;8142;48.242;11.644;2023-05-07T12:49:29;20.60;99.90
16076;DHT22;8142;48.242;11.644;2023-05-07T12:51:55;20.60;99.90
16076;DHT22;8142;48.242;11.644;2023-05-07T12:54:32;20.70;99.90
16076;DHT22;8142;48.242;11.644;2023-05-07T12:57:19;20.70;99.90
16076;DHT22;8142;48.242;11.644;2023-05-07T12:59:45;20.70;99.90
16076;DHT22;8142;48.242;11.644;2023-05-07T13:02:11;20.60;99.90
16076;DHT22;8142;48.242;11.644;2023-05-07T13:04:37;20.70;99.90
16076;DHT22;8142;48.242;11.644;2023-05-07T13:07:03;20.70;99.90
16076;DHT22;8142;48.242;11.644;2023-05-07T13:09:29;20.70;99.90
16076;DHT22;8142;48.242;11.644;2023-05-07T13:11:55;20.70;99.90
16076;DHT22;8142;48.242;11.644;2023-05-07T13:14:21;20.70;99.90
16076;DHT22;8142;48.242;11.644;2023-05-07T13:16:47;20.70;99.90
16076;DHT22;8142;48.242;11.644;2023-05-07T13:19:13;20.80;99.90
16076;DHT22;8142;48.242;11.644;2023-05-07T13:21:39;20.80;99.90
16076;DHT22;8142;48.242;11.644;2023-05-07T13:24:05;20.70;99.90
16076;DHT22;8142;48.242;11.644;2023-05-07T13:26:31;20.80;99.90
16076;DHT22;8142;48.242;11.644;2023-05-07T13:28:57;20.80;99.90
16076;DHT22;8142;48.242;11.644;2023-05-07T13:31:24;20.80;99.90
16076;DHT22;8142;48.242;11.644;2023-05-07T13:33:50;20.70;99.90
16076;DHT22;8142;48.242;11.644;2023-05-07T13:36:16;20.70;99.90
16076;DHT22;8142;48.242;11.644;2023-05-07T13:38:42;20.70;99.90
16076;DHT22;8142;48.242;11.644;2023-05-07T13:41:08;20.70;99.90
16076;DHT22;8142;48.242;11.644;2023-05-07T13:43:33;20.70;99.90
16076;DHT22;8142;48.242;11.644;2023-05-07T13:46:00;20.60;99.90
16076;DHT22;8142;48.242;11.644;2023-05-07T13:48:26;20.70;99.90
16076;DHT22;8142;48.242;11.644;2023-05-07T13:50:52;20.60;99.90
16076;DHT22;8142;48.242;11.644;2023-05-07T13:53:18;20.60;99.90
16076;DHT22;8142;48.242;11.644;2023-05-07T13:55:44;20.50;99.90
16076;DHT22;8142;48.242;11.644;2023-05-07T13:58:10;20.40;99.90
16076;DHT22;8142;48.242;11.644;2023-05-07T14:00:37;20.30;99.90
16076;DHT22;8142;48.242;11.644;2023-05-07T14:03:04;20.30;99.90
16076;DHT22;8142;48.242;11.644;2023-05-07T14:05:30;20.20;99.90
16076;DHT22;8142;48.242;11.644;2023-05-07T14:07:59;20.20;99.90
16076;DHT22;8142;48.242;11.644;2023-05-07T14:10:25;20.20;99.90
16076;DHT22;8142;48.242;11.644;2023-05-07T14:12:51;20.20;99.90
16076;DHT22;8142;48.242;11.644;2023-05-07T14:15:18;20.30;99.90
16076;DHT22;8142;48.242;11.644;2023-05-07T14:17:44;20.30;99.90
16076;DHT22;8142;48.242;11.644;2023-05-07T14:20:11;20.30;99.90
16076;DHT22;8142;48.242;11.644;2023-05-07T14:22:37;20.30;99.90
16076;DHT22;8142;48.242;11.644;2023-05-07T14:25:04;20.50;99.90
16076;DHT22;8142;48.242;11.644;2023-05-07T14:27:30;20.40;99.90
16076;DHT22;8142;48.242;11.644;2023-05-07T14:29:56;20.40;99.90
16076;DHT22;8142;48.242;11.644;2023-05-07T14:32:22;20.40;99.90
16076;DHT22;8142;48.242;11.644;2023-05-07T14:34:47;20.50;99.90
16076;DHT22;8142;48.242;11.644;2023-05-07T14:37:13;20.50;99.90
16076;DHT22;8142;48.242;11.644;2023-05-07T14:39:39;20.40;99.90
16076;DHT22;8142;48.242;11.644;2023-05-07T14:42:06;20.50;99.90
16076;DHT22;8142;48.242;11.644;2023-05-07T14:44:34;20.40;99.90
16076;DHT22;8142;48.242;11.644;2023-05-07T14:47:00;20.50;99.90
16076;DHT22;8142;48.242;11.644;2023-05-07T14:49:26;20.50;99.90
16076;DHT22;8142;48.242;11.644;2023-05-07T14:51:52;20.50;99.90
16076;DHT22;8142;48.242;11.644;2023-05-07T14:54:18;20.50;99.90
16076;DHT22;8142;48.242;11.644;2023-05-07T14:56:43;20.50;99.90
16076;DHT22;8142;48.242;11.644;2023-05-07T14:59:09;20.50;99.90
16076;DHT22;8142;48.242;11.644;2023-05-07T15:01:36;20.50;99.90
16076;DHT22;8142;48.242;11.644;2023-05-07T15:04:05;20.50;99.90
16076;DHT22;8142;48.242;11.644;2023-05-07T15:06:31;20.50;99.90
16076;DHT22;8142;48.242;11.644;2023-05-07T15:08:58;20.50;99.90
16076;DHT22;8142;48.242;11.644;2023-05-07T15:11:23;20.50;99.90
16076;DHT22;8142;48.242;11.644;2023-05-07T15:13:49;20.50;99.90
16076;DHT22;8142;48.242;11.644;2023-05-07T15:16:15;20.60;99.90
16076;DHT22;8142;48.242;11.644;2023-05-07T15:18:42;20.40;99.90
16076;DHT22;8142;48.242;11.644;2023-05-07T15:21:08;20.40;99.90
16076;DHT22;8142;48.242;11.644;2023-05-07T15:23:34;20.40;99.90
16076;DHT22;8142;48.242;11.644;2023-05-07T15:25:59;20.40;99.90
16076;DHT22;8142;48.242;11.644;2023-05-07T15:28:27;20.40;99.90
16076;DHT22;8142;48.242;11.644;2023-05-07T15:30:54;20.30;99.90
16076;DHT22;8142;48.242;11.644;2023-05-07T15:33:21;20.30;99.90
16076;DHT22;8142;48.242;11.644;2023-05-07T15:35:46;20.30;99.90
16076;DHT22;8142;48.242;11.644;2023-05-07T15:38:12;20.20;99.90